Time;durP1;ratioP1;P1;durP2;ratioP2;P2;SDS_P1;SDS_P2;PMS_P1;PMS_P2;Temp;Humidity;BMP_temperature;BMP_pressure;BME280_temperature;BME280_humidity;BME280_pressure;Samples;Min_cycle;Max_cycle;Signal;HPM_P1;HPM_P2
2023/07/03 00:00:51;;;;;;;8.30;5.90;;;;;;;13.62;70.68;99778.46;102751;275;97309;-58
2023/07/03 00:03:51;;;;;;;9.00;6.00;;;;;;;13.57;70.74;99777.08;102735;275;120191;-58
2023/07/03 00:06:38;;;;;;;8.40;5.80;;;;;;;13.55;71.08;99780.27;102902;275;105713;-55
2023/07/03 00:09:15;;;;;;;8.70;6.20;;;;;;;13.56;71.13;99784.19;102848;275;114334;-57
2023/07/03 00:11:51;;;;;;;8.30;6.00;;;;;;;13.52;71.22;99790.23;102746;275;98636;-56
2023/07/03 00:14:29;;;;;;;10.00;5.80;;;;;;;13.48;71.22;99789.48;102846;275;98103;-57
2023/07/03 00:17:05;;;;;;;7.90;5.60;;;;;;;13.45;71.46;99784.63;102837;275;117691;-57
2023/07/03 00:19:39;;;;;;;9.20;6.40;;;;;;;13.42;71.56;99785.61;102879;276;104153;-57
2023/07/03 00:22:16;;;;;;;11.70;5.60;;;;;;;13.37;71.75;99783.28;102794;276;114317;-56
2023/07/03 00:24:55;;;;;;;9.00;6.00;;;;;;;13.31;71.79;99791.00;102860;276;94832;-56
2023/07/03 00:27:34;;;;;;;9.70;6.20;;;;;;;13.25;72.10;99791.65;102851;276;97452;-56
2023/07/03 00:30:13;;;;;;;10.60;6.60;;;;;;;13.11;72.29;99792.87;102862;275;119381;-58
2023/07/03 00:32:57;;;;;;;11.70;6.90;;;;;;;12.99;72.45;99796.48;102817;275;106233;-58
2023/07/03 00:35:40;;;;;;;8.60;5.90;;;;;;;12.87;72.74;99796.23;102843;276;114556;-58
2023/07/03 00:38:24;;;;;;;7.30;5.50;;;;;;;12.79;72.95;99799.21;102811;275;96959;-58
2023/07/03 00:41:10;;;;;;;8.40;5.70;;;;;;;12.70;73.21;99798.46;102825;275;97849;-56
2023/07/03 00:43:48;;;;;;;9.20;5.70;;;;;;;12.63;73.56;99800.48;102791;275;118091;-56
2023/07/03 00:46:25;;;;;;;7.20;5.10;;;;;;;12.57;73.75;99803.64;102793;275;105564;-59
2023/07/03 00:49:04;;;;;;;9.60;6.10;;;;;;;12.52;73.86;99808.62;102773;275;114740;-57
2023/07/03 00:51:44;;;;;;;7.20;5.40;;;;;;;12.48;74.00;99808.01;102811;276;95716;-59
2023/07/03 00:54:28;;;;;;;10.40;5.80;;;;;;;12.41;74.34;99808.20;102864;275;95769;-59
2023/07/03 00:57:06;;;;;;;10.90;6.60;;;;;;;12.35;74.65;99813.86;102849;275;119969;-58
2023/07/03 00:59:42;;;;;;;8.70;6.00;;;;;;;12.31;74.80;99818.14;102844;275;105961;-56
2023/07/03 01:02:23;;;;;;;9.70;6.90;;;;;;;12.29;75.02;99818.69;102807;276;114094;-56
2023/07/03 01:05:02;;;;;;;8.40;6.10;;;;;;;12.28;75.08;99815.05;102860;276;94737;-56
2023/07/03 01:07:43;;;;;;;10.70;6.20;;;;;;;12.25;75.18;99812.33;102828;272;97234;-57
2023/07/03 01:10:26;;;;;;;9.10;6.30;;;;;;;12.20;75.35;99814.76;102843;275;118847;-59
2023/07/03 01:13:04;;;;;;;8.40;6.60;;;;;;;12.19;75.74;99811.39;102855;275;106386;-59
2023/07/03 01:15:48;;;;;;;8.40;6.20;;;;;;;12.17;76.00;99815.98;102838;275;114084;-58
2023/07/03 01:18:25;;;;;;;9.90;6.30;;;;;;;12.18;75.96;99813.68;102806;276;96811;-57
2023/07/03 01:21:09;;;;;;;9.50;6.90;;;;;;;12.23;76.20;99814.67;102898;275;98117;-56
2023/07/03 01:23:54;;;;;;;11.20;7.10;;;;;;;12.26;76.35;99814.50;102824;276;119753;-59
2023/07/03 01:26:36;;;;;;;10.60;7.60;;;;;;;12.28;76.43;99813.60;102807;275;105079;-56
2023/07/03 01:29:22;;;;;;;12.30;6.80;;;;;;;12.30;76.53;99814.73;102817;276;114740;-57
2023/07/03 01:32:04;;;;;;;8.10;6.60;;;;;;;12.34;76.66;99816.37;102781;275;97157;-57
2023/07/03 01:34:45;;;;;;;9.40;6.80;;;;;;;12.36;76.61;99813.15;102844;276;98132;-57
2023/07/03 01:37:29;;;;;;;11.40;7.50;;;;;;;12.38;76.64;99819.39;102788;275;119332;-56
2023/07/03 01:40:07;;;;;;;10.90;7.40;;;;;;;12.38;76.86;99816.60;102836;275;104933;-56
2023/07/03 01:42:45;;;;;;;9.90;6.70;;;;;;;12.42;76.92;99816.04;102804;275;114523;-56
2023/07/03 01:45:22;;;;;;;9.90;7.20;;;;;;;12.47;77.11;99818.17;102863;276;97165;-59
2023/07/03 01:47:58;;;;;;;9.50;6.70;;;;;;;12.51;77.04;99818.50;102826;275;98524;-59
2023/07/03 01:50:33;;;;;;;10.40;7.50;;;;;;;12.54;77.10;99820.52;102842;275;118501;-58
2023/07/03 01:53:14;;;;;;;9.80;7.70;;;;;;;12.54;77.06;99820.33;102836;276;105254;-58
2023/07/03 01:55:57;;;;;;;9.90;7.70;;;;;;;12.51;77.21;99819.41;102879;276;113530;-57
2023/07/03 01:58:44;;;;;;;9.30;6.90;;;;;;;12.52;77.28;99826.05;102869;276;94979;-56
2023/07/03 02:01:28;;;;;;;12.00;7.60;;;;;;;12.51;77.21;99826.50;102886;275;98368;-58
2023/07/03 02:04:23;;;;;;;10.40;7.30;;;;;;;12.51;77.28;99827.71;102869;275;119395;-57
2023/07/03 02:07:03;;;;;;;11.70;7.70;;;;;;;12.53;77.38;99827.38;102729;277;105362;-59
2023/07/03 02:09:44;;;;;;;13.80;7.20;;;;;;;12.55;77.42;99825.45;102750;265;113912;-57
2023/07/03 02:12:29;;;;;;;10.80;7.20;;;;;;;12.58;77.42;99826.98;102710;277;96265;-57
2023/07/03 02:15:07;;;;;;;10.50;7.50;;;;;;;12.57;77.61;99834.98;102754;276;96989;-57
2023/07/03 02:17:43;;;;;;;9.00;6.80;;;;;;;12.59;77.64;99827.14;102714;277;119563;-58
2023/07/03 02:20:18;;;;;;;9.30;7.10;;;;;;;12.62;77.81;99828.41;102740;277;104242;-57
2023/07/03 02:22:58;;;;;;;9.50;7.40;;;;;;;12.64;77.72;99830.10;102695;277;114927;-58
2023/07/03 02:25:33;;;;;;;12.00;7.10;;;;;;;12.60;77.61;99833.67;102753;277;95877;-56
2023/07/03 02:28:14;;;;;;;12.10;7.30;;;;;;;12.58;77.76;99834.30;102767;277;97968;-56
2023/07/03 02:30:50;;;;;;;9.80;7.50;;;;;;;12.58;77.79;99836.14;102784;277;120480;-57
2023/07/03 02:33:31;;;;;;;20.40;8.80;;;;;;;12.61;77.80;99838.30;102734;277;104344;-56
2023/07/03 02:36:10;;;;;;;9.10;7.20;;;;;;;12.65;78.01;99836.77;102737;277;113179;-56
2023/07/03 02:38:49;;;;;;;12.30;7.60;;;;;;;12.69;78.03;99837.54;102699;277;96036;-56
2023/07/03 02:41:26;;;;;;;10.50;6.90;;;;;;;12.78;78.07;99841.79;102760;277;98050;-57
2023/07/03 02:44:03;;;;;;;11.40;7.30;;;;;;;12.87;77.97;99839.20;102767;277;119437;-56
2023/07/03 02:46:46;;;;;;;12.00;8.00;;;;;;;12.92;78.00;99840.09;102786;277;104495;-56
2023/07/03 02:49:24;;;;;;;12.10;7.60;;;;;;;12.95;77.92;99842.89;102743;277;113323;-57
2023/07/03 02:52:04;;;;;;;11.80;7.60;;;;;;;12.97;77.82;99839.49;102734;277;97274;-57
2023/07/03 02:54:44;;;;;;;12.20;7.20;;;;;;;13.06;78.04;99847.55;102749;277;98300;-57
2023/07/03 02:57:24;;;;;;;13.80;8.00;;;;;;;13.12;77.98;99844.73;102718;277;119962;-56
2023/07/03 03:00:07;;;;;;;9.50;6.50;;;;;;;13.20;77.78;99848.23;102725;277;105534;-59
2023/07/03 03:02:51;;;;;;;11.30;7.60;;;;;;;13.28;77.71;99849.42;102702;277;113837;-59
2023/07/03 03:05:30;;;;;;;9.20;7.10;;;;;;;13.36;77.56;99850.98;102710;277;97034;-58
2023/07/03 03:08:11;;;;;;;11.50;7.70;;;;;;;13.43;77.56;99851.06;102705;274;97994;-59
2023/07/03 03:10:53;;;;;;;12.80;8.50;;;;;;;13.50;77.42;99850.16;102776;277;119131;-58
2023/07/03 03:13:31;;;;;;;10.70;7.20;;;;;;;13.58;77.31;99852.10;102724;277;105632;-58
2023/07/03 03:16:08;;;;;;;14.00;8.30;;;;;;;13.63;77.28;99851.92;102752;277;115008;-58
2023/07/03 03:18:47;;;;;;;;;;;;;;;13.65;77.25;99853.30;102779;277;95006;-59
2023/07/03 03:21:28;;;;;;;11.00;7.90;;;;;;;13.70;77.04;99857.37;102718;277;97153;-58
2023/07/03 03:24:09;;;;;;;11.90;6.70;;;;;;;13.77;77.02;99858.27;102699;265;119838;-58
2023/07/03 03:26:51;;;;;;;12.40;8.80;;;;;;;13.92;76.91;99859.59;102724;277;106007;-59
2023/07/03 03:29:33;;;;;;;9.70;7.40;;;;;;;14.09;76.90;99863.84;102727;277;114328;-58
2023/07/03 03:32:09;;;;;;;10.80;6.60;;;;;;;14.33;76.68;99865.06;102732;277;94301;-58
2023/07/03 03:34:48;;;;;;;10.50;7.20;;;;;;;14.60;76.36;99864.91;102794;277;98665;-58
2023/07/03 03:37:31;;;;;;;12.30;7.80;;;;;;;15.23;75.84;99860.85;102705;277;118819;-59
2023/07/03 03:40:11;;;;;;;10.40;7.70;;;;;;;16.29;74.66;99857.61;102742;277;105056;-59
2023/07/03 03:42:45;;;;;;;10.00;7.00;;;;;;;17.28;73.57;99861.02;102257;278;444621;-59
2023/07/03 03:45:25;;;;;;;11.90;7.20;;;;;;;18.28;72.17;99860.91;102725;277;93833;-57
2023/07/03 03:48:06;;;;;;;12.90;7.10;;;;;;;19.37;70.53;99850.05;102725;277;98389;-57
2023/07/03 03:50:42;;;;;;;11.30;7.30;;;;;;;20.33;68.86;99847.68;102792;277;120093;-59
2023/07/03 03:53:19;;;;;;;12.50;7.70;;;;;;;21.22;67.13;99843.09;102753;277;105042;-58
2023/07/03 03:56:00;;;;;;;11.30;6.90;;;;;;;21.99;65.33;99837.23;102738;277;113874;-59
2023/07/03 03:58:44;;;;;;;8.90;7.50;;;;;;;22.73;63.34;99843.53;102736;277;94669;-59
2023/07/03 04:01:23;;;;;;;8.60;6.20;;;;;;;23.52;61.57;99842.42;102790;277;96875;-58
2023/07/03 04:04:08;;;;;;;10.80;6.80;;;;;;;23.38;60.03;99848.23;102760;277;119421;-58
2023/07/03 04:06:48;;;;;;;9.60;6.40;;;;;;;22.98;59.43;99856.81;102775;269;104598;-59
2023/07/03 04:09:30;;;;;;;9.00;6.70;;;;;;;22.62;58.89;99853.31;102782;277;113995;-57
2023/07/03 04:12:09;;;;;;;9.30;6.90;;;;;;;21.57;59.02;99843.45;102696;277;93729;-57
2023/07/03 04:14:47;;;;;;;10.10;6.70;;;;;;;20.92;59.23;99838.89;102729;277;97060;-57
2023/07/03 04:17:26;;;;;;;10.40;7.40;;;;;;;20.41;59.53;99837.54;102746;277;119636;-57
2023/07/03 04:20:13;;;;;;;9.40;6.70;;;;;;;19.99;59.89;99840.48;102742;278;105639;-57
2023/07/03 04:22:48;;;;;;;11.80;7.00;;;;;;;19.56;60.39;99840.61;102723;278;114368;-59
2023/07/03 04:25:27;;;;;;;10.60;6.40;;;;;;;19.18;60.64;99842.59;102741;277;93871;-57
2023/07/03 04:28:12;;;;;;;13.10;6.70;;;;;;;18.99;61.08;99849.66;102716;277;96043;-57
2023/07/03 04:30:57;;;;;;;8.40;6.50;;;;;;;18.79;61.11;99852.58;102748;277;118813;-58
2023/07/03 04:33:36;;;;;;;14.70;7.90;;;;;;;18.64;61.49;99857.27;102720;277;104516;-58
2023/07/03 04:36:21;;;;;;;11.20;7.30;;;;;;;18.44;61.53;99853.81;102768;277;114711;-58
2023/07/03 04:39:02;;;;;;;8.90;6.50;;;;;;;18.36;61.92;99853.05;102721;277;93732;-59
2023/07/03 04:41:44;;;;;;;9.90;7.00;;;;;;;18.65;62.27;99847.53;102745;277;98176;-58
2023/07/03 04:44:21;;;;;;;9.10;6.90;;;;;;;18.85;62.29;99850.46;102746;277;118618;-59
2023/07/03 04:47:05;;;;;;;12.50;7.80;;;;;;;18.92;62.23;99853.59;102729;277;106450;-58
2023/07/03 04:49:49;;;;;;;9.20;6.50;;;;;;;19.40;62.19;99854.53;102724;277;114660;-58
2023/07/03 04:52:38;;;;;;;10.40;7.40;;;;;;;21.23;60.88;99852.66;102725;277;94188;-58
2023/07/03 04:55:14;;;;;;;11.70;7.50;;;;;;;23.17;58.65;99849.58;102794;277;96711;-57
2023/07/03 04:57:51;;;;;;;9.30;6.70;;;;;;;24.33;56.71;99851.17;102751;277;119572;-57
2023/07/03 05:00:28;;;;;;;8.70;7.00;;;;;;;25.10;55.16;99846.86;102754;277;105400;-58
2023/07/03 05:03:05;;;;;;;10.20;6.70;;;;;;;26.27;53.52;99849.84;102725;277;114144;-59
2023/07/03 05:05:40;;;;;;;8.00;6.70;;;;;;;27.38;51.71;99856.20;102710;277;93900;-58
2023/07/03 05:08:18;;;;;;;8.90;7.30;;;;;;;28.24;49.92;99855.63;102700;277;97587;-58
2023/07/03 05:11:00;;;;;;;9.60;7.10;;;;;;;28.97;48.56;99852.83;102717;277;120011;-57
2023/07/03 05:13:37;;;;;;;10.00;6.70;;;;;;;29.48;47.33;99857.56;102696;277;105348;-58
2023/07/03 05:16:15;;;;;;;8.00;7.10;;;;;;;30.09;46.06;99857.75;102724;277;114511;-59
2023/07/03 05:18:56;;;;;;;11.70;6.70;;;;;;;30.71;44.68;99860.23;102721;277;95310;-59
2023/07/03 05:21:30;;;;;;;10.70;6.90;;;;;;;31.16;43.30;99862.00;102775;277;96483;-57
2023/07/03 05:24:09;;;;;;;8.40;6.20;;;;;;;31.51;42.50;99863.11;102726;277;119905;-56
2023/07/03 05:26:48;;;;;;;8.80;6.10;;;;;;;31.92;41.76;99862.26;102766;277;105718;-57
2023/07/03 05:29:27;;;;;;;9.40;6.60;;;;;;;32.65;40.51;99855.20;102774;277;113717;-55
2023/07/03 05:32:07;;;;;;;9.10;6.30;;;;;;;32.99;39.23;99852.70;102762;277;95034;-57
2023/07/03 05:34:51;;;;;;;8.90;6.10;;;;;;;33.26;38.62;99849.58;102779;277;97793;-59
2023/07/03 05:37:37;;;;;;;8.40;5.70;;;;;;;33.54;37.41;99849.14;102766;277;120342;-58
2023/07/03 05:40:14;;;;;;;10.10;6.50;;;;;;;33.75;36.58;99859.64;102812;277;105921;-59
2023/07/03 05:42:51;;;;;;;7.00;5.90;;;;;;;33.74;35.95;99864.82;102720;265;114627;-58
2023/07/03 05:45:30;;;;;;;10.40;6.80;;;;;;;33.97;35.55;99868.52;102787;277;94082;-57
2023/07/03 05:48:05;;;;;;;9.30;6.00;;;;;;;34.33;34.97;99870.40;102750;277;97301;-57
2023/07/03 05:50:42;;;;;;;9.40;6.20;;;;;;;34.62;33.85;99873.42;102755;277;118986;-57
2023/07/03 05:53:21;;;;;;;7.70;6.00;;;;;;;34.74;33.25;99867.55;102697;277;105798;-60
2023/07/03 05:56:00;;;;;;;8.80;6.00;;;;;;;35.02;32.99;99865.61;102723;265;115454;-57
2023/07/03 05:58:34;;;;;;;8.60;5.70;;;;;;;35.32;32.27;99868.59;102760;277;94273;-57
2023/07/03 06:01:19;;;;;;;8.80;5.50;;;;;;;35.51;31.69;99874.30;102784;277;96982;-55
2023/07/03 06:03:58;;;;;;;7.40;5.50;;;;;;;35.70;31.07;99883.40;102769;277;119492;-55
2023/07/03 06:06:42;;;;;;;7.20;6.00;;;;;;;35.81;30.74;99889.02;102774;277;104974;-57
2023/07/03 06:09:26;;;;;;;8.60;5.40;;;;;;;35.65;30.53;99892.11;102779;277;115275;-56
2023/07/03 06:12:08;;;;;;;7.80;5.90;;;;;;;35.83;30.08;99893.16;102747;277;94562;-58
2023/07/03 06:14:49;;;;;;;6.60;5.40;;;;;;;36.37;29.76;99897.14;102787;277;98039;-56
2023/07/03 06:17:32;;;;;;;7.00;6.10;;;;;;;36.76;29.43;99896.41;102715;277;119399;-56
2023/07/03 06:20:11;;;;;;;7.90;5.40;;;;;;;36.89;28.51;99895.50;102782;277;105415;-57
2023/07/03 06:22:50;;;;;;;6.20;4.70;;;;;;;37.07;27.53;99901.39;102767;277;114111;-57
2023/07/03 06:25:29;;;;;;;8.40;5.50;;;;;;;37.07;27.53;99900.50;102776;277;95063;-57
2023/07/03 06:28:16;;;;;;;6.70;5.40;;;;;;;37.21;27.66;99896.11;102783;277;97964;-56
2023/07/03 06:30:53;;;;;;;6.40;4.80;;;;;;;37.29;27.56;99900.67;102762;277;119553;-57
2023/07/03 06:33:32;;;;;;;7.50;5.30;;;;;;;37.43;27.39;99906.94;102732;277;105827;-57
2023/07/03 06:36:09;;;;;;;7.40;5.60;;;;;;;37.69;26.39;99904.48;102773;277;113905;-57
2023/07/03 06:38:53;;;;;;;7.10;5.80;;;;;;;37.92;26.04;99906.83;102755;277;94288;-57
2023/07/03 06:41:32;;;;;;;8.20;5.80;;;;;;;37.87;25.78;99904.08;102726;277;96899;-58
2023/07/03 06:44:13;;;;;;;8.00;6.10;;;;;;;38.21;25.47;99906.11;102736;276;120298;-58
2023/07/03 06:46:51;;;;;;;7.80;5.70;;;;;;;38.04;25.46;99902.20;102767;277;105774;-59
2023/07/03 06:49:33;;;;;;;7.40;5.80;;;;;;;38.10;25.07;99900.27;102724;277;114075;-57
2023/07/03 06:52:11;;;;;;;6.90;5.10;;;;;;;38.44;24.74;99903.33;102729;277;94852;-59
2023/07/03 06:54:46;;;;;;;10.30;6.10;;;;;;;36.85;24.77;99905.48;102783;277;98814;-57
2023/07/03 06:57:26;;;;;;;8.30;5.70;;;;;;;35.46;26.09;99903.07;102757;277;120055;-57
2023/07/03 07:00:06;;;;;;;9.80;6.20;;;;;;;36.34;26.03;99907.54;102814;277;103803;-58
2023/07/03 07:02:47;;;;;;;8.90;5.50;;;;;;;37.06;25.60;99905.70;102769;277;114260;-58
2023/07/03 07:05:28;;;;;;;9.50;5.60;;;;;;;37.35;25.14;99898.10;102772;277;95221;-59
2023/07/03 07:08:07;;;;;;;7.00;5.70;;;;;;;37.73;25.08;99897.77;102764;265;97843;-60
2023/07/03 07:10:47;;;;;;;9.60;5.40;;;;;;;37.96;24.59;99900.33;102736;277;119937;-58
2023/07/03 07:13:23;;;;;;;6.80;5.60;;;;;;;38.13;24.00;99900.54;102768;277;104013;-57
2023/07/03 07:16:05;;;;;;;7.60;5.40;;;;;;;38.43;24.01;99900.08;102759;277;112239;-58
2023/07/03 07:18:46;;;;;;;8.20;5.60;;;;;;;38.59;23.45;99896.92;102693;277;94809;-58
2023/07/03 07:21:29;;;;;;;7.50;5.70;;;;;;;38.84;23.35;99897.27;102760;277;98223;-56
2023/07/03 07:24:19;;;;;;;8.00;6.10;;;;;;;39.03;22.77;99900.63;102751;277;119519;-57
2023/07/03 07:26:57;;;;;;;5.80;5.00;;;;;;;39.07;22.53;99901.39;102741;277;105716;-56
2023/07/03 07:29:41;;;;;;;7.90;5.40;;;;;;;39.18;22.41;99897.36;102743;277;113524;-56
2023/07/03 07:32:17;;;;;;;6.00;5.10;;;;;;;39.07;21.84;99903.66;102728;277;94467;-57
2023/07/03 07:34:58;;;;;;;7.20;5.00;;;;;;;39.04;21.80;99900.00;102752;277;97467;-56
2023/07/03 07:37:38;;;;;;;5.80;4.80;;;;;;;39.13;22.22;99900.64;102724;277;119482;-55
2023/07/03 07:40:14;;;;;;;7.70;5.30;;;;;;;39.13;21.52;99898.71;102787;277;105497;-56
2023/07/03 07:42:54;;;;;;;7.30;5.40;;;;;;;39.13;21.12;99900.48;102758;277;114454;-55
2023/07/03 07:45:31;;;;;;;5.50;4.90;;;;;;;39.18;21.11;99902.38;102452;279;94236;-56
2023/07/03 07:48:07;;;;;;;6.00;4.80;;;;;;;38.96;20.74;99899.22;102754;277;98300;-55
2023/07/03 07:50:44;;;;;;;8.20;4.60;;;;;;;38.69;21.08;99895.89;102767;277;117894;-58
2023/07/03 07:53:32;;;;;;;7.20;5.00;;;;;;;38.91;20.78;99895.79;102750;277;105422;-57
2023/07/03 07:56:10;;;;;;;6.10;4.50;;;;;;;39.10;20.45;99893.35;102545;278;115820;-57
2023/07/03 07:58:52;;;;;;;7.10;4.60;;;;;;;38.98;20.18;99893.34;102726;277;94841;-62
2023/07/03 08:01:28;;;;;;;7.30;5.00;;;;;;;39.05;20.46;99898.88;102750;277;98045;-57
2023/07/03 08:04:03;;;;;;;7.60;5.10;;;;;;;39.09;19.91;99896.58;102775;277;118104;-57
2023/07/03 08:06:39;;;;;;;7.90;5.40;;;;;;;39.22;19.90;99899.27;102734;277;105150;-56
2023/07/03 08:09:20;;;;;;;5.30;4.70;;;;;;;39.17;19.82;99895.73;102726;277;115593;-57
2023/07/03 08:11:56;;;;;;;7.20;4.50;;;;;;;38.93;20.03;99896.44;102727;277;94907;-57
2023/07/03 08:14:36;;;;;;;6.30;4.90;;;;;;;38.37;19.88;99899.95;102746;277;98613;-55
2023/07/03 08:17:16;;;;;;;8.70;4.80;;;;;;;38.15;20.08;99897.73;102741;277;119335;-61
2023/07/03 08:19:57;;;;;;;5.40;4.40;;;;;;;37.38;20.55;99899.85;102755;277;106642;-56
2023/07/03 08:22:40;;;;;;;8.00;4.90;;;;;;;37.30;20.77;99896.91;102721;277;113263;-55
2023/07/03 08:25:23;;;;;;;7.00;4.90;;;;;;;38.13;20.59;99905.62;102732;277;94394;-56
2023/07/03 08:28:01;;;;;;;5.50;4.30;;;;;;;37.40;20.74;99904.77;102534;277;97118;-57
2023/07/03 08:30:44;;;;;;;6.30;4.80;;;;;;;37.46;20.44;99901.82;102739;277;118614;-55
2023/07/03 08:33:27;;;;;;;7.70;4.70;;;;;;;36.64;20.55;99907.11;102763;277;105225;-56
2023/07/03 08:36:06;;;;;;;7.40;4.70;;;;;;;35.76;21.06;99910.67;102765;277;112739;-57
2023/07/03 08:38:49;;;;;;;5.80;4.40;;;;;;;35.34;21.36;99909.09;102764;277;93702;-57
2023/07/03 08:41:24;;;;;;;;;;;;;;;35.89;21.87;99907.02;102629;277;98296;-58
2023/07/03 08:44:03;;;;;;;7.90;5.10;;;;;;;36.27;21.45;99906.37;102791;277;120128;-58
2023/07/03 08:46:40;;;;;;;7.20;4.90;;;;;;;36.28;21.23;99905.02;102728;277;105207;-64
2023/07/03 08:49:25;;;;;;;7.20;5.10;;;;;;;36.74;21.28;99895.34;102724;277;113498;-56
2023/07/03 08:52:02;;;;;;;6.30;4.60;;;;;;;37.24;21.06;99891.17;102687;277;93756;-56
2023/07/03 08:54:47;;;;;;;5.70;4.40;;;;;;;37.45;20.91;99890.86;102749;277;97111;-56
2023/07/03 08:57:31;;;;;;;8.00;4.70;;;;;;;37.01;21.22;99897.32;102716;277;118368;-56
2023/07/03 09:00:12;;;;;;;9.50;4.70;;;;;;;36.70;21.20;99898.64;102732;277;104845;-57
2023/07/03 09:02:59;;;;;;;6.70;4.70;;;;;;;35.96;21.12;99895.84;102731;277;113609;-57
2023/07/03 09:05:54;;;;;;;6.70;4.80;;;;;;;35.46;21.52;99894.27;102739;277;94927;-57
2023/07/03 09:08:37;;;;;;;6.90;5.20;;;;;;;34.90;21.87;99893.55;102729;277;97598;-58
2023/07/03 09:11:21;;;;;;;6.80;4.70;;;;;;;34.55;22.08;99899.38;102596;277;120313;-57
2023/07/03 09:14:05;;;;;;;7.70;4.30;;;;;;;34.09;22.45;99903.86;102698;277;105590;-55
2023/07/03 09:16:46;;;;;;;8.60;5.20;;;;;;;33.01;22.86;99902.51;102739;277;113542;-56
2023/07/03 09:19:31;;;;;;;8.60;5.10;;;;;;;32.48;23.73;99906.60;102743;277;95124;-58
2023/07/03 09:22:12;;;;;;;8.60;6.00;;;;;;;32.38;24.15;99903.70;102764;277;96873;-57
2023/07/03 09:24:59;;;;;;;6.00;5.00;;;;;;;32.28;24.59;99908.44;102765;277;119680;-56
2023/07/03 09:27:38;;;;;;;9.40;5.60;;;;;;;31.96;24.72;99901.34;102751;277;105224;-57
2023/07/03 09:30:18;;;;;;;8.70;5.20;;;;;;;31.67;24.96;99907.04;102790;277;112795;-58
2023/07/03 09:32:59;;;;;;;7.90;5.30;;;;;;;31.47;25.30;99904.52;102740;277;93785;-58
2023/07/03 09:35:40;;;;;;;8.50;5.50;;;;;;;31.18;25.95;99901.33;102749;277;98057;-58
2023/07/03 09:38:22;;;;;;;10.00;5.50;;;;;;;31.18;26.12;99899.59;102739;277;119659;-56
2023/07/03 09:41:06;;;;;;;7.30;6.00;;;;;;;31.10;25.98;99890.91;102754;277;106123;-56
2023/07/03 09:43:47;;;;;;;8.40;5.70;;;;;;;31.00;26.05;99885.38;102730;277;114753;-56
2023/07/03 09:46:24;;;;;;;10.30;5.90;;;;;;;31.03;26.71;99882.29;102725;277;94538;-57
2023/07/03 09:49:05;;;;;;;9.40;6.00;;;;;;;30.93;26.92;99879.52;102561;278;96855;-57
2023/07/03 09:51:52;;;;;;;11.90;6.50;;;;;;;31.28;27.23;99880.84;102745;276;119246;-58
2023/07/03 09:54:34;;;;;;;9.00;5.90;;;;;;;31.59;26.98;99877.84;102735;277;105596;-53
2023/07/03 09:57:23;;;;;;;9.60;5.80;;;;;;;31.25;26.57;99882.70;102699;277;114654;-56
2023/07/03 10:00:14;;;;;;;8.30;5.70;;;;;;;30.73;26.99;99876.19;102775;277;94451;-58
2023/07/03 10:02:56;;;;;;;6.80;5.60;;;;;;;30.72;27.41;99878.45;102787;277;98522;-58
2023/07/03 10:05:42;;;;;;;10.00;6.20;;;;;;;30.69;27.07;99887.84;102753;277;119711;-56
2023/07/03 10:08:23;;;;;;;13.00;6.30;;;;;;;30.54;27.14;99884.57;102740;277;104878;-57
2023/07/03 10:11:01;;;;;;;8.70;6.20;;;;;;;30.43;26.98;99883.83;102795;277;113979;-58
2023/07/03 10:13:46;;;;;;;8.10;5.80;;;;;;;30.27;27.64;99884.23;102750;277;94407;-58
2023/07/03 10:16:29;;;;;;;10.10;5.70;;;;;;;30.35;27.79;99880.21;102763;277;97442;-58
2023/07/03 10:19:10;;;;;;;8.00;5.90;;;;;;;30.31;27.92;99879.69;102740;277;120193;-58
2023/07/03 10:21:51;;;;;;;8.90;6.00;;;;;;;30.34;27.83;99868.01;102585;277;106299;-58
2023/07/03 10:24:32;;;;;;;8.90;6.00;;;;;;;30.35;28.14;99862.92;102752;277;114498;-59
2023/07/03 10:27:19;;;;;;;29.20;7.40;;;;;;;30.41;27.82;99866.54;102741;277;94900;-58
2023/07/03 10:29:59;;;;;;;7.80;6.00;;;;;;;30.36;27.64;99875.73;102682;277;97500;-58
2023/07/03 10:32:38;;;;;;;9.40;5.90;;;;;;;30.27;27.42;99871.02;102722;277;120919;-57
2023/07/03 10:35:28;;;;;;;9.30;6.00;;;;;;;30.37;27.56;99863.20;102771;277;105572;-56
2023/07/03 10:38:24;;;;;;;10.00;5.90;;;;;;;30.30;27.81;99859.70;102768;277;114689;-56
2023/07/03 10:41:08;;;;;;;9.40;6.60;;;;;;;30.17;27.44;99858.41;102674;278;95420;-57
2023/07/03 10:43:54;;;;;;;8.90;6.00;;;;;;;29.92;27.83;99864.20;102739;277;97344;-57
2023/07/03 10:46:40;;;;;;;10.10;6.30;;;;;;;29.79;27.78;99866.64;102815;277;119039;-58
2023/07/03 10:49:24;;;;;;;8.10;5.90;;;;;;;29.65;27.95;99861.95;102776;277;104904;-57
2023/07/03 10:52:13;;;;;;;12.40;6.30;;;;;;;29.60;28.01;99860.42;102731;277;114106;-57
2023/07/03 10:55:02;;;;;;;11.00;6.20;;;;;;;29.50;28.41;99861.02;102685;277;93818;-57
2023/07/03 10:58:02;;;;;;;9.70;6.20;;;;;;;29.27;28.44;99865.26;102709;277;97726;-58
2023/07/03 11:00:47;;;;;;;8.10;6.20;;;;;;;29.30;28.80;99865.48;102745;277;119920;-57
2023/07/03 11:03:34;;;;;;;8.80;6.30;;;;;;;29.38;28.80;99862.98;102758;277;105679;-56
2023/07/03 11:06:21;;;;;;;9.80;6.20;;;;;;;29.29;28.77;99849.93;102693;277;114117;-56
2023/07/03 11:09:18;;;;;;;10.30;6.90;;;;;;;29.30;28.68;99853.77;102728;277;94611;-61
2023/07/03 11:12:04;;;;;;;10.60;6.30;;;;;;;28.99;28.79;99851.66;102726;277;98216;-61
2023/07/03 11:14:57;;;;;;;9.30;7.10;;;;;;;28.71;29.49;99857.40;102590;277;119754;-61
2023/07/03 11:17:46;;;;;;;9.40;6.10;;;;;;;28.60;29.45;99860.54;102701;277;105663;-62
2023/07/03 11:20:30;;;;;;;12.90;6.80;;;;;;;28.45;29.15;99852.71;102755;277;114481;-61
2023/07/03 11:23:13;;;;;;;;;;;;;;;28.39;29.16;99852.39;102727;265;92353;-60
2023/07/03 11:26:06;;;;;;;8.80;6.50;;;;;;;28.30;29.83;99851.92;102744;277;97886;-60
2023/07/03 11:28:46;;;;;;;10.70;6.50;;;;;;;28.22;29.76;99853.81;102678;277;119146;-60
2023/07/03 11:31:26;;;;;;;7.00;5.60;;;;;;;27.95;29.66;99849.54;102576;277;105866;-60
2023/07/03 11:34:05;;;;;;;8.70;6.30;;;;;;;27.74;30.08;99854.98;102565;278;114019;-61
2023/07/03 11:36:45;;;;;;;9.50;6.00;;;;;;;27.75;30.59;99856.23;102779;277;95924;-61
2023/07/03 11:39:29;;;;;;;10.50;6.00;;;;;;;27.67;30.91;99856.20;102788;277;97782;-61
2023/07/03 11:42:25;;;;;;;9.80;6.10;;;;;;;27.61;30.88;99853.74;102171;277;706493;-60
2023/07/03 11:45:08;;;;;;;9.10;6.20;;;;;;;27.52;31.68;99856.02;102761;277;104935;-61
2023/07/03 11:47:44;;;;;;;11.30;6.40;;;;;;;27.50;31.79;99854.17;102684;277;115579;-61
2023/07/03 11:50:30;;;;;;;9.00;6.40;;;;;;;27.54;31.58;99853.43;102758;277;94193;-57
2023/07/03 11:53:08;;;;;;;9.60;6.10;;;;;;;27.92;31.35;99847.13;102754;277;97391;-58
2023/07/03 11:55:54;;;;;;;9.20;6.70;;;;;;;28.29;31.19;99835.02;102726;277;119112;-57
2023/07/03 11:58:38;;;;;;;8.90;6.20;;;;;;;28.40;31.11;99827.41;102745;277;105498;-62
2023/07/03 12:01:36;;;;;;;10.00;6.70;;;;;;;28.32;31.23;99820.81;102758;277;115093;-61
2023/07/03 12:04:51;;;;;;;9.60;5.80;;;;;;;28.13;31.18;99823.88;102733;277;95130;-57
2023/07/03 12:07:56;;;;;;;10.40;6.10;;;;;;;28.19;31.32;99819.34;102711;277;97425;-55
2023/07/03 12:11:07;;;;;;;8.50;6.50;;;;;;;28.17;31.34;99822.61;102745;277;119265;-62
2023/07/03 12:13:57;;;;;;;9.20;6.10;;;;;;;28.12;31.11;99828.59;102597;277;105986;-57
2023/07/03 12:16:47;;;;;;;10.70;6.30;;;;;;;27.98;31.10;99832.98;102596;277;112445;-56
2023/07/03 12:19:31;;;;;;;9.30;6.00;;;;;;;27.77;31.82;99842.86;102808;277;94411;-58
2023/07/03 12:22:13;;;;;;;9.40;6.60;;;;;;;27.64;31.84;99838.89;102750;277;97376;-57
2023/07/03 12:25:02;;;;;;;9.80;6.50;;;;;;;27.56;31.58;99838.23;102780;277;119313;-58
2023/07/03 12:27:38;;;;;;;9.10;6.00;;;;;;;27.52;31.48;99836.27;102779;277;106226;-59
2023/07/03 12:30:36;;;;;;;9.50;6.40;;;;;;;27.64;31.40;99830.15;102786;277;112347;-59
2023/07/03 12:33:22;;;;;;;10.10;6.90;;;;;;;27.71;31.46;99826.80;102521;267;96765;-59